sensor_id;sensor_type;location;lat;lon;timestamp;P1;P2;P0
73546;PMS7003;61807;48.384;-4.386;2022-10-31T00:01:59;1.25;0.00;0.00
73546;PMS7003;61807;48.384;-4.386;2022-10-31T00:04:25;3.00;1.00;0.50
73546;PMS7003;61807;48.384;-4.386;2022-10-31T00:06:50;2.00;0.00;0.00
73546;PMS7003;61807;48.384;-4.386;2022-10-31T00:09:16;1.50;0.00;0.00
73546;PMS7003;61807;48.384;-4.386;2022-10-31T00:11:41;4.50;2.00;1.25
73546;PMS7003;61807;48.384;-4.386;2022-10-31T00:14:06;0.50;0.50;0.00
73546;PMS7003;61807;48.384;-4.386;2022-10-31T00:16:32;7.00;1.00;1.00
73546;PMS7003;61807;48.384;-4.386;2022-10-31T00:18:58;2.50;0.25;0.25
73546;PMS7003;61807;48.384;-4.386;2022-10-31T00:21:25;2.00;1.00;0.00
73546;PMS7003;61807;48.384;-4.386;2022-10-31T00:23:51;4.25;2.00;0.00
73546;PMS7003;61807;48.384;-4.386;2022-10-31T00:26:17;7.75;1.00;0.00
73546;PMS7003;61807;48.384;-4.386;2022-10-31T00:28:43;3.25;0.00;0.00
73546;PMS7003;61807;48.384;-4.386;2022-10-31T00:31:09;5.75;0.75;0.25
73546;PMS7003;61807;48.384;-4.386;2022-10-31T00:33:36;3.00;0.50;0.00
73546;PMS7003;61807;48.384;-4.386;2022-10-31T00:36:03;4.25;0.25;0.00
73546;PMS7003;61807;48.384;-4.386;2022-10-31T00:38:30;2.00;0.00;0.00
73546;PMS7003;61807;48.384;-4.386;2022-10-31T00:40:56;0.50;0.50;0.00
73546;PMS7003;61807;48.384;-4.386;2022-10-31T00:43:21;4.50;0.50;0.00
73546;PMS7003;61807;48.384;-4.386;2022-10-31T00:45:46;0.00;0.00;0.00
73546;PMS7003;61807;48.384;-4.386;2022-10-31T00:48:12;3.25;1.00;0.00
73546;PMS7003;61807;48.384;-4.386;2022-10-31T00:50:38;2.00;0.00;0.00
73546;PMS7003;61807;48.384;-4.386;2022-10-31T00:53:04;5.00;0.50;0.00
73546;PMS7003;61807;48.384;-4.386;2022-10-31T00:55:29;5.75;0.00;0.00
73546;PMS7003;61807;48.384;-4.386;2022-10-31T00:57:55;1.00;1.00;0.50
73546;PMS7003;61807;48.384;-4.386;2022-10-31T01:00:20;2.00;2.00;0.00
73546;PMS7003;61807;48.384;-4.386;2022-10-31T01:02:46;2.75;1.00;0.00
73546;PMS7003;61807;48.384;-4.386;2022-10-31T01:05:11;8.75;1.00;0.00
73546;PMS7003;61807;48.384;-4.386;2022-10-31T01:07:38;6.00;1.00;0.00
73546;PMS7003;61807;48.384;-4.386;2022-10-31T01:10:04;4.50;0.50;0.00
73546;PMS7003;61807;48.384;-4.386;2022-10-31T01:12:35;4.50;1.00;0.00
73546;PMS7003;61807;48.384;-4.386;2022-10-31T01:15:05;7.25;1.00;0.25
73546;PMS7003;61807;48.384;-4.386;2022-10-31T01:17:31;0.00;0.00;0.00
73546;PMS7003;61807;48.384;-4.386;2022-10-31T01:19:56;4.00;1.00;0.75
73546;PMS7003;61807;48.384;-4.386;2022-10-31T01:22:21;2.75;0.00;0.00
73546;PMS7003;61807;48.384;-4.386;2022-10-31T01:24:47;7.50;1.75;1.00
73546;PMS7003;61807;48.384;-4.386;2022-10-31T01:27:12;5.25;1.00;1.00
73546;PMS7003;61807;48.384;-4.386;2022-10-31T01:29:37;2.50;1.25;0.50
73546;PMS7003;61807;48.384;-4.386;2022-10-31T01:32:03;4.50;1.00;0.00
73546;PMS7003;61807;48.384;-4.386;2022-10-31T01:34:28;5.00;0.25;0.00
73546;PMS7003;61807;48.384;-4.386;2022-10-31T01:36:54;5.75;0.00;0.00
73546;PMS7003;61807;48.384;-4.386;2022-10-31T01:39:19;0.00;0.00;0.00
73546;PMS7003;61807;48.384;-4.386;2022-10-31T01:41:47;3.00;0.25;0.00
73546;PMS7003;61807;48.384;-4.386;2022-10-31T01:49:43;2.00;1.00;0.00
73546;PMS7003;61807;48.384;-4.386;2022-10-31T01:54:58;2.25;1.00;0.50
73546;PMS7003;61807;48.384;-4.386;2022-10-31T01:57:51;3.75;0.00;0.00
73546;PMS7003;61807;48.384;-4.386;2022-10-31T02:00:20;0.25;0.25;0.00
73546;PMS7003;61807;48.384;-4.386;2022-10-31T02:02:46;2.25;1.00;0.00
73546;PMS7003;61807;48.384;-4.386;2022-10-31T02:05:16;1.00;0.00;0.00
73546;PMS7003;61807;48.384;-4.386;2022-10-31T02:10:51;2.00;0.00;0.00
73546;PMS7003;61807;48.384;-4.386;2022-10-31T02:13:17;3.00;0.00;0.00
73546;PMS7003;61807;48.384;-4.386;2022-10-31T02:15:44;1.00;0.00;0.00
73546;PMS7003;61807;48.384;-4.386;2022-10-31T02:18:14;0.50;0.00;0.00
73546;PMS7003;61807;48.384;-4.386;2022-10-31T02:34:55;2.25;0.00;0.00
73546;PMS7003;61807;48.384;-4.386;2022-10-31T02:37:37;3.00;0.00;0.00
73546;PMS7003;61807;48.384;-4.386;2022-10-31T02:40:30;0.00;0.00;0.00
73546;PMS7003;61807;48.384;-4.386;2022-10-31T02:43:02;1.50;0.00;0.00
73546;PMS7003;61807;48.384;-4.386;2022-10-31T02:48:19;1.75;0.00;0.00
73546;PMS7003;61807;48.384;-4.386;2022-10-31T02:50:51;4.25;1.00;0.00
73546;PMS7003;61807;48.384;-4.386;2022-10-31T02:53:21;2.00;0.00;0.00
73546;PMS7003;61807;48.384;-4.386;2022-10-31T02:55:49;2.50;0.00;0.00
73546;PMS7003;61807;48.384;-4.386;2022-10-31T02:58:21;0.00;0.00;0.00
73546;PMS7003;61807;48.384;-4.386;2022-10-31T03:06:14;0.00;0.00;0.00
73546;PMS7003;61807;48.384;-4.386;2022-10-31T03:08:58;2.50;0.00;0.00
73546;PMS7003;61807;48.384;-4.386;2022-10-31T03:11:54;3.00;0.00;0.00
73546;PMS7003;61807;48.384;-4.386;2022-10-31T03:14:41;2.00;0.00;0.00
73546;PMS7003;61807;48.384;-4.386;2022-10-31T03:17:13;2.00;0.00;0.00
73546;PMS7003;61807;48.384;-4.386;2022-10-31T03:19:47;0.75;0.00;0.00
73546;PMS7003;61807;48.384;-4.386;2022-10-31T03:22:29;3.25;0.00;0.00
73546;PMS7003;61807;48.384;-4.386;2022-10-31T03:24:56;3.00;0.00;0.00
73546;PMS7003;61807;48.384;-4.386;2022-10-31T03:27:26;3.50;0.00;0.00
73546;PMS7003;61807;48.384;-4.386;2022-10-31T03:29:55;2.25;0.00;0.00
73546;PMS7003;61807;48.384;-4.386;2022-10-31T03:32:26;3.25;1.00;0.00
73546;PMS7003;61807;48.384;-4.386;2022-10-31T03:34:55;3.00;1.00;0.00
73546;PMS7003;61807;48.384;-4.386;2022-10-31T03:37:24;2.25;0.00;0.00
73546;PMS7003;61807;48.384;-4.386;2022-10-31T03:39:52;0.00;0.00;0.00
73546;PMS7003;61807;48.384;-4.386;2022-10-31T03:42:24;3.75;1.00;0.00
73546;PMS7003;61807;48.384;-4.386;2022-10-31T03:45:06;2.00;0.00;0.00
73546;PMS7003;61807;48.384;-4.386;2022-10-31T03:47:36;0.00;0.00;0.00
73546;PMS7003;61807;48.384;-4.386;2022-10-31T03:50:04;0.00;0.00;0.00
73546;PMS7003;61807;48.384;-4.386;2022-10-31T03:55:20;0.75;0.00;0.00
73546;PMS7003;61807;48.384;-4.386;2022-10-31T03:58:00;3.50;0.00;0.00
73546;PMS7003;61807;48.384;-4.386;2022-10-31T04:00:30;2.50;0.00;0.00
73546;PMS7003;61807;48.384;-4.386;2022-10-31T04:03:00;0.75;0.00;0.00
73546;PMS7003;61807;48.384;-4.386;2022-10-31T04:05:35;0.50;0.00;0.00
73546;PMS7003;61807;48.384;-4.386;2022-10-31T04:08:03;2.50;2.00;0.50
73546;PMS7003;61807;48.384;-4.386;2022-10-31T04:10:33;4.50;0.00;0.00
73546;PMS7003;61807;48.384;-4.386;2022-10-31T04:13:10;3.00;1.00;0.00
73546;PMS7003;61807;48.384;-4.386;2022-10-31T04:15:40;4.25;0.25;0.00
73546;PMS7003;61807;48.384;-4.386;2022-10-31T04:18:08;1.25;0.25;0.00
73546;PMS7003;61807;48.384;-4.386;2022-10-31T04:20:34;1.00;0.00;0.00
73546;PMS7003;61807;48.384;-4.386;2022-10-31T04:23:02;0.50;0.00;0.00
73546;PMS7003;61807;48.384;-4.386;2022-10-31T04:25:28;2.00;0.00;0.00
73546;PMS7003;61807;48.384;-4.386;2022-10-31T04:27:53;2.50;0.25;0.00
73546;PMS7003;61807;48.384;-4.386;2022-10-31T04:30:19;0.75;0.00;0.00
73546;PMS7003;61807;48.384;-4.386;2022-10-31T04:32:44;1.50;0.00;0.00
73546;PMS7003;61807;48.384;-4.386;2022-10-31T04:35:10;3.00;0.00;0.00
73546;PMS7003;61807;48.384;-4.386;2022-10-31T04:37:35;0.75;0.00;0.00
73546;PMS7003;61807;48.384;-4.386;2022-10-31T04:40:00;4.25;0.00;0.00
73546;PMS7003;61807;48.384;-4.386;2022-10-31T04:42:28;2.00;0.00;0.00
73546;PMS7003;61807;48.384;-4.386;2022-10-31T04:44:55;1.00;0.25;0.00
73546;PMS7003;61807;48.384;-4.386;2022-10-31T04:47:20;3.00;0.00;0.00
73546;PMS7003;61807;48.384;-4.386;2022-10-31T04:49:45;2.00;0.00;0.00
73546;PMS7003;61807;48.384;-4.386;2022-10-31T04:52:11;4.00;0.00;0.00
73546;PMS7003;61807;48.384;-4.386;2022-10-31T04:54:36;0.50;0.00;0.00
73546;PMS7003;61807;48.384;-4.386;2022-10-31T04:57:02;1.00;0.00;0.00
73546;PMS7003;61807;48.384;-4.386;2022-10-31T04:59:27;1.50;0.00;0.00
73546;PMS7003;61807;48.384;-4.386;2022-10-31T05:01:53;0.00;0.00;0.00
73546;PMS7003;61807;48.384;-4.386;2022-10-31T05:04:18;2.00;0.00;0.00
73546;PMS7003;61807;48.384;-4.386;2022-10-31T05:06:43;1.50;0.00;0.00
73546;PMS7003;61807;48.384;-4.386;2022-10-31T05:09:09;1.00;0.00;0.00
73546;PMS7003;61807;48.384;-4.386;2022-10-31T05:11:34;0.75;0.75;0.00
73546;PMS7003;61807;48.384;-4.386;2022-10-31T05:13:59;1.50;0.75;0.00
73546;PMS7003;61807;48.384;-4.386;2022-10-31T05:16:25;1.75;1.00;0.00
73546;PMS7003;61807;48.384;-4.386;2022-10-31T05:18:50;3.75;1.50;1.00
73546;PMS7003;61807;48.384;-4.386;2022-10-31T05:21:15;1.00;1.00;0.00
73546;PMS7003;61807;48.384;-4.386;2022-10-31T05:23:41;1.00;0.00;0.00
73546;PMS7003;61807;48.384;-4.386;2022-10-31T05:26:06;1.75;0.00;0.00
73546;PMS7003;61807;48.384;-4.386;2022-10-31T05:28:32;0.00;0.00;0.00
73546;PMS7003;61807;48.384;-4.386;2022-10-31T05:30:57;0.00;0.00;0.00
73546;PMS7003;61807;48.384;-4.386;2022-10-31T05:33:22;3.00;0.00;0.00
73546;PMS7003;61807;48.384;-4.386;2022-10-31T05:35:48;3.50;0.00;0.00
73546;PMS7003;61807;48.384;-4.386;2022-10-31T05:38:13;0.50;0.00;0.00
73546;PMS7003;61807;48.384;-4.386;2022-10-31T05:40:39;3.00;0.00;0.00
73546;PMS7003;61807;48.384;-4.386;2022-10-31T05:43:04;3.50;0.00;0.00
73546;PMS7003;61807;48.384;-4.386;2022-10-31T05:45:29;2.25;0.00;0.00
73546;PMS7003;61807;48.384;-4.386;2022-10-31T05:47:58;3.00;0.00;0.00
73546;PMS7003;61807;48.384;-4.386;2022-10-31T05:50:25;2.00;0.00;0.00
73546;PMS7003;61807;48.384;-4.386;2022-10-31T05:52:56;0.25;0.00;0.00
73546;PMS7003;61807;48.384;-4.386;2022-10-31T05:55:23;1.50;0.00;0.00
73546;PMS7003;61807;48.384;-4.386;2022-10-31T05:57:50;0.00;0.00;0.00
73546;PMS7003;61807;48.384;-4.386;2022-10-31T06:00:17;0.25;0.25;0.00
73546;PMS7003;61807;48.384;-4.386;2022-10-31T06:02:42;1.25;0.00;0.00
73546;PMS7003;61807;48.384;-4.386;2022-10-31T06:05:08;2.00;0.00;0.00
73546;PMS7003;61807;48.384;-4.386;2022-10-31T06:07:33;1.50;0.00;0.00
73546;PMS7003;61807;48.384;-4.386;2022-10-31T06:10:00;2.25;0.00;0.00
73546;PMS7003;61807;48.384;-4.386;2022-10-31T06:12:26;0.00;0.00;0.00
73546;PMS7003;61807;48.384;-4.386;2022-10-31T06:14:51;3.00;0.00;0.00
73546;PMS7003;61807;48.384;-4.386;2022-10-31T06:17:17;4.75;1.00;0.50
73546;PMS7003;61807;48.384;-4.386;2022-10-31T06:19:42;1.25;0.00;0.00
73546;PMS7003;61807;48.384;-4.386;2022-10-31T06:22:08;2.00;0.00;0.00
73546;PMS7003;61807;48.384;-4.386;2022-10-31T06:24:33;0.00;0.00;0.00
73546;PMS7003;61807;48.384;-4.386;2022-10-31T06:26:58;4.00;0.00;0.00
73546;PMS7003;61807;48.384;-4.386;2022-10-31T06:29:24;0.75;0.00;0.00
73546;PMS7003;61807;48.384;-4.386;2022-10-31T06:31:52;6.00;2.00;0.75
73546;PMS7003;61807;48.384;-4.386;2022-10-31T06:34:18;1.00;0.00;0.00
73546;PMS7003;61807;48.384;-4.386;2022-10-31T06:36:43;0.00;0.00;0.00
73546;PMS7003;61807;48.384;-4.386;2022-10-31T06:39:11;1.00;1.00;0.00
73546;PMS7003;61807;48.384;-4.386;2022-10-31T06:41:36;3.50;0.50;0.00
73546;PMS7003;61807;48.384;-4.386;2022-10-31T06:44:02;2.00;0.50;0.00
73546;PMS7003;61807;48.384;-4.386;2022-10-31T06:46:27;3.00;0.00;0.00
73546;PMS7003;61807;48.384;-4.386;2022-10-31T06:48:53;2.00;0.00;0.00
73546;PMS7003;61807;48.384;-4.386;2022-10-31T06:51:18;0.50;0.00;0.00
73546;PMS7003;61807;48.384;-4.386;2022-10-31T06:53:43;2.50;0.75;0.00
73546;PMS7003;61807;48.384;-4.386;2022-10-31T06:56:09;2.75;0.00;0.00
73546;PMS7003;61807;48.384;-4.386;2022-10-31T06:58:34;1.50;0.00;0.00
73546;PMS7003;61807;48.384;-4.386;2022-10-31T07:01:00;1.25;0.00;0.00
73546;PMS7003;61807;48.384;-4.386;2022-10-31T07:03:26;2.00;1.00;0.00
73546;PMS7003;61807;48.384;-4.386;2022-10-31T07:05:51;0.00;0.00;0.00
73546;PMS7003;61807;48.384;-4.386;2022-10-31T07:08:16;0.75;0.00;0.00
73546;PMS7003;61807;48.384;-4.386;2022-10-31T07:10:42;6.00;2.00;1.00
73546;PMS7003;61807;48.384;-4.386;2022-10-31T07:13:09;1.25;0.75;0.75
73546;PMS7003;61807;48.384;-4.386;2022-10-31T07:15:37;1.00;1.00;0.00
73546;PMS7003;61807;48.384;-4.386;2022-10-31T07:18:04;2.50;1.00;0.00
73546;PMS7003;61807;48.384;-4.386;2022-10-31T07:20:32;1.00;0.00;0.00
73546;PMS7003;61807;48.384;-4.386;2022-10-31T07:22:58;0.50;0.00;0.00
73546;PMS7003;61807;48.384;-4.386;2022-10-31T07:25:23;0.75;0.00;0.00
73546;PMS7003;61807;48.384;-4.386;2022-10-31T07:27:50;1.25;0.00;0.00
73546;PMS7003;61807;48.384;-4.386;2022-10-31T07:30:16;1.50;0.75;0.00
73546;PMS7003;61807;48.384;-4.386;2022-10-31T07:32:45;1.00;1.00;0.75
73546;PMS7003;61807;48.384;-4.386;2022-10-31T07:35:13;1.75;0.00;0.00
73546;PMS7003;61807;48.384;-4.386;2022-10-31T07:37:43;5.25;2.00;1.00
73546;PMS7003;61807;48.384;-4.386;2022-10-31T07:40:09;1.00;0.25;0.00
73546;PMS7003;61807;48.384;-4.386;2022-10-31T07:42:35;4.00;0.75;0.00
73546;PMS7003;61807;48.384;-4.386;2022-10-31T07:45:01;1.50;1.00;1.00
73546;PMS7003;61807;48.384;-4.386;2022-10-31T07:47:27;1.50;0.50;0.00
73546;PMS7003;61807;48.384;-4.386;2022-10-31T07:49:53;0.50;0.50;0.00
73546;PMS7003;61807;48.384;-4.386;2022-10-31T07:52:18;0.50;0.00;0.00
73546;PMS7003;61807;48.384;-4.386;2022-10-31T07:54:43;2.00;0.25;0.00
73546;PMS7003;61807;48.384;-4.386;2022-10-31T07:57:09;1.75;1.00;1.00
73546;PMS7003;61807;48.384;-4.386;2022-10-31T07:59:34;3.00;0.00;0.00
73546;PMS7003;61807;48.384;-4.386;2022-10-31T08:01:59;4.50;1.00;1.00
73546;PMS7003;61807;48.384;-4.386;2022-10-31T08:04:25;2.00;0.50;0.00
73546;PMS7003;61807;48.384;-4.386;2022-10-31T08:06:50;3.00;0.25;0.00
73546;PMS7003;61807;48.384;-4.386;2022-10-31T08:09:15;1.50;1.00;1.00
73546;PMS7003;61807;48.384;-4.386;2022-10-31T08:11:41;2.50;1.00;0.50
73546;PMS7003;61807;48.384;-4.386;2022-10-31T08:14:06;2.50;2.00;1.25
73546;PMS7003;61807;48.384;-4.386;2022-10-31T08:16:31;4.50;1.00;0.75
73546;PMS7003;61807;48.384;-4.386;2022-10-31T08:18:57;2.00;1.00;0.00
73546;PMS7003;61807;48.384;-4.386;2022-10-31T08:21:22;2.00;2.00;2.00
73546;PMS7003;61807;48.384;-4.386;2022-10-31T08:23:48;1.00;1.00;1.00
73546;PMS7003;61807;48.384;-4.386;2022-10-31T08:26:13;1.00;1.00;0.50
73546;PMS7003;61807;48.384;-4.386;2022-10-31T08:28:38;1.50;1.00;1.00
73546;PMS7003;61807;48.384;-4.386;2022-10-31T08:31:04;1.00;1.00;1.00
73546;PMS7003;61807;48.384;-4.386;2022-10-31T08:33:30;2.75;1.00;1.00
73546;PMS7003;61807;48.384;-4.386;2022-10-31T08:35:59;2.00;1.00;0.25
73546;PMS7003;61807;48.384;-4.386;2022-10-31T08:38:24;2.75;1.00;1.00
73546;PMS7003;61807;48.384;-4.386;2022-10-31T08:40:50;0.75;0.75;0.25
73546;PMS7003;61807;48.384;-4.386;2022-10-31T08:43:16;2.00;0.75;0.75
73546;PMS7003;61807;48.384;-4.386;2022-10-31T08:45:43;0.25;0.25;0.25
73546;PMS7003;61807;48.384;-4.386;2022-10-31T08:48:10;3.00;1.00;1.00
73546;PMS7003;61807;48.384;-4.386;2022-10-31T08:50:37;0.50;0.50;0.00
73546;PMS7003;61807;48.384;-4.386;2022-10-31T08:53:04;4.50;1.00;1.00
73546;PMS7003;61807;48.384;-4.386;2022-10-31T08:55:34;2.25;0.25;0.25
73546;PMS7003;61807;48.384;-4.386;2022-10-31T08:58:01;0.50;0.50;0.00
73546;PMS7003;61807;48.384;-4.386;2022-10-31T09:00:28;0.50;0.50;0.50
73546;PMS7003;61807;48.384;-4.386;2022-10-31T09:02:57;1.00;1.00;1.00
73546;PMS7003;61807;48.384;-4.386;2022-10-31T09:05:23;2.25;1.25;1.00
73546;PMS7003;61807;48.384;-4.386;2022-10-31T09:07:50;0.50;0.50;0.00
73546;PMS7003;61807;48.384;-4.386;2022-10-31T09:10:15;1.00;1.00;0.75
73546;PMS7003;61807;48.384;-4.386;2022-10-31T09:12:41;1.50;1.50;1.50
73546;PMS7003;61807;48.384;-4.386;2022-10-31T09:15:06;2.00;0.50;0.50
73546;PMS7003;61807;48.384;-4.386;2022-10-31T09:17:32;0.25;0.25;0.25
73546;PMS7003;61807;48.384;-4.386;2022-10-31T09:19:58;0.50;0.50;0.25
73546;PMS7003;61807;48.384;-4.386;2022-10-31T09:22:23;2.00;0.50;0.50
73546;PMS7003;61807;48.384;-4.386;2022-10-31T09:24:49;0.50;0.50;0.50
73546;PMS7003;61807;48.384;-4.386;2022-10-31T09:27:14;2.00;0.75;0.50
73546;PMS7003;61807;48.384;-4.386;2022-10-31T09:29:39;0.75;0.75;0.00
73546;PMS7003;61807;48.384;-4.386;2022-10-31T09:32:05;0.00;0.00;0.00
73546;PMS7003;61807;48.384;-4.386;2022-10-31T09:34:30;0.50;0.50;0.00
73546;PMS7003;61807;48.384;-4.386;2022-10-31T09:36:56;1.75;0.75;0.25
73546;PMS7003;61807;48.384;-4.386;2022-10-31T09:39:21;2.00;0.50;0.25
73546;PMS7003;61807;48.384;-4.386;2022-10-31T09:42:09;1.00;0.25;0.00
73546;PMS7003;61807;48.384;-4.386;2022-10-31T09:48:09;3.75;2.25;1.25
73546;PMS7003;61807;48.384;-4.386;2022-10-31T09:51:00;2.25;0.75;0.50
73546;PMS7003;61807;48.384;-4.386;2022-10-31T09:56:09;1.00;0.00;0.00
73546;PMS7003;61807;48.384;-4.386;2022-10-31T09:58:40;0.00;0.00;0.00
73546;PMS7003;61807;48.384;-4.386;2022-10-31T10:01:22;0.00;0.00;0.00
73546;PMS7003;61807;48.384;-4.386;2022-10-31T10:03:51;0.00;0.00;0.00
73546;PMS7003;61807;48.384;-4.386;2022-10-31T10:06:22;1.25;0.00;0.00
73546;PMS7003;61807;48.384;-4.386;2022-10-31T10:08:50;0.50;0.50;0.00
73546;PMS7003;61807;48.384;-4.386;2022-10-31T10:14:34;0.00;0.00;0.00
73546;PMS7003;61807;48.384;-4.386;2022-10-31T10:17:32;1.75;0.00;0.00
73546;PMS7003;61807;48.384;-4.386;2022-10-31T10:25:20;0.00;0.00;0.00
73546;PMS7003;61807;48.384;-4.386;2022-10-31T10:30:41;0.50;0.50;0.00
73546;PMS7003;61807;48.384;-4.386;2022-10-31T10:33:32;0.00;0.00;0.00
73546;PMS7003;61807;48.384;-4.386;2022-10-31T10:35:55;0.25;0.25;0.00
73546;PMS7003;61807;48.384;-4.386;2022-10-31T10:38:50;2.25;0.00;0.00
73546;PMS7003;61807;48.384;-4.386;2022-10-31T10:41:16;4.50;4.00;1.75
73546;PMS7003;61807;48.384;-4.386;2022-10-31T10:43:42;0.25;0.00;0.00
73546;PMS7003;61807;48.384;-4.386;2022-10-31T10:49:17;1.75;0.00;0.00
73546;PMS7003;61807;48.384;-4.386;2022-10-31T10:52:07;1.50;1.00;0.00
73546;PMS7003;61807;48.384;-4.386;2022-10-31T11:00:30;1.00;1.00;1.00
73546;PMS7003;61807;48.384;-4.386;2022-10-31T11:02:59;1.25;1.25;1.00
73546;PMS7003;61807;48.384;-4.386;2022-10-31T11:05:35;1.00;1.00;0.25
73546;PMS7003;61807;48.384;-4.386;2022-10-31T11:08:04;2.00;1.00;1.00
73546;PMS7003;61807;48.384;-4.386;2022-10-31T11:10:30;2.75;1.00;1.00
73546;PMS7003;61807;48.384;-4.386;2022-10-31T11:15:49;3.50;1.00;1.00
73546;PMS7003;61807;48.384;-4.386;2022-10-31T11:18:37;3.25;1.75;1.75
73546;PMS7003;61807;48.384;-4.386;2022-10-31T11:21:04;2.00;2.00;2.00
73546;PMS7003;61807;48.384;-4.386;2022-10-31T11:23:31;3.25;2.50;2.00
73546;PMS7003;61807;48.384;-4.386;2022-10-31T11:26:01;2.00;2.00;1.00
73546;PMS7003;61807;48.384;-4.386;2022-10-31T11:28:31;3.75;2.00;1.25
73546;PMS7003;61807;48.384;-4.386;2022-10-31T11:31:00;2.50;1.75;1.25
73546;PMS7003;61807;48.384;-4.386;2022-10-31T11:33:53;1.50;1.00;1.00
73546;PMS7003;61807;48.384;-4.386;2022-10-31T11:36:29;2.25;1.00;0.00
73546;PMS7003;61807;48.384;-4.386;2022-10-31T11:38:57;3.00;3.00;2.00
73546;PMS7003;61807;48.384;-4.386;2022-10-31T11:46:30;6.00;2.00;1.25
73546;PMS7003;61807;48.384;-4.386;2022-10-31T11:48:58;5.50;2.75;2.75
73546;PMS7003;61807;48.384;-4.386;2022-10-31T11:51:27;2.25;1.00;1.00
73546;PMS7003;61807;48.384;-4.386;2022-10-31T11:53:59;2.75;2.50;2.00
73546;PMS7003;61807;48.384;-4.386;2022-10-31T11:56:39;2.50;1.25;1.00
73546;PMS7003;61807;48.384;-4.386;2022-10-31T11:59:14;3.00;1.00;1.00
73546;PMS7003;61807;48.384;-4.386;2022-10-31T12:01:46;3.00;2.75;1.75
73546;PMS7003;61807;48.384;-4.386;2022-10-31T12:04:13;4.50;3.25;2.25
73546;PMS7003;61807;48.384;-4.386;2022-10-31T12:06:39;3.25;2.25;2.00
73546;PMS7003;61807;48.384;-4.386;2022-10-31T12:17:16;3.75;3.75;3.00
73546;PMS7003;61807;48.384;-4.386;2022-10-31T12:26:04;5.50;4.25;3.00
73546;PMS7003;61807;48.384;-4.386;2022-10-31T12:48:04;7.25;6.25;4.75
73546;PMS7003;61807;48.384;-4.386;2022-10-31T12:50:29;9.50;8.25;5.50
73546;PMS7003;61807;48.384;-4.386;2022-10-31T12:53:18;7.50;5.00;4.25
73546;PMS7003;61807;48.384;-4.386;2022-10-31T12:58:33;7.50;6.50;4.00
73546;PMS7003;61807;48.384;-4.386;2022-10-31T13:01:26;7.00;5.75;4.25
73546;PMS7003;61807;48.384;-4.386;2022-10-31T13:04:01;6.00;4.50;3.00
73546;PMS7003;61807;48.384;-4.386;2022-10-31T13:06:53;13.25;9.25;5.00
73546;PMS7003;61807;48.384;-4.386;2022-10-31T13:09:39;9.50;6.75;5.25
73546;PMS7003;61807;48.384;-4.386;2022-10-31T13:12:14;8.00;6.75;4.25
73546;PMS7003;61807;48.384;-4.386;2022-10-31T13:14:47;8.75;6.75;4.25
73546;PMS7003;61807;48.384;-4.386;2022-10-31T13:17:27;7.75;4.75;4.25
73546;PMS7003;61807;48.384;-4.386;2022-10-31T13:25:39;4.75;4.50;3.75
73546;PMS7003;61807;48.384;-4.386;2022-10-31T13:30:48;14.50;9.00;5.50
73546;PMS7003;61807;48.384;-4.386;2022-10-31T13:35:50;11.00;7.00;5.00
73546;PMS7003;61807;48.384;-4.386;2022-10-31T13:38:23;5.50;5.50;4.25
73546;PMS7003;61807;48.384;-4.386;2022-10-31T13:41:12;9.00;6.25;4.25
73546;PMS7003;61807;48.384;-4.386;2022-10-31T13:46:45;5.25;4.50;4.00
73546;PMS7003;61807;48.384;-4.386;2022-10-31T13:54:34;11.75;6.75;5.00
73546;PMS7003;61807;48.384;-4.386;2022-10-31T13:57:06;6.25;4.75;3.75
73546;PMS7003;61807;48.384;-4.386;2022-10-31T13:59:53;8.75;6.75;4.00
73546;PMS7003;61807;48.384;-4.386;2022-10-31T14:02:43;8.50;5.25;4.00
73546;PMS7003;61807;48.384;-4.386;2022-10-31T14:05:51;9.50;8.00;6.00
73546;PMS7003;61807;48.384;-4.386;2022-10-31T14:08:05;6.75;6.25;4.25
73546;PMS7003;61807;48.384;-4.386;2022-10-31T14:10:46;7.75;6.25;4.00
73546;PMS7003;61807;48.384;-4.386;2022-10-31T14:13:15;8.75;5.75;4.00
73546;PMS7003;61807;48.384;-4.386;2022-10-31T14:16:23;6.00;5.00;3.25
73546;PMS7003;61807;48.384;-4.386;2022-10-31T14:18:42;9.50;5.50;4.50
73546;PMS7003;61807;48.384;-4.386;2022-10-31T14:23:49;9.25;5.50;4.00
73546;PMS7003;61807;48.384;-4.386;2022-10-31T14:28:51;3.00;3.00;2.50
73546;PMS7003;61807;48.384;-4.386;2022-10-31T14:36:56;4.75;3.00;2.00
73546;PMS7003;61807;48.384;-4.386;2022-10-31T14:39:25;4.00;3.00;2.00
73546;PMS7003;61807;48.384;-4.386;2022-10-31T14:42:09;1.75;1.75;1.00
73546;PMS7003;61807;48.384;-4.386;2022-10-31T14:44:44;6.50;2.75;2.00
73546;PMS7003;61807;48.384;-4.386;2022-10-31T14:53:02;5.25;3.50;2.00
73546;PMS7003;61807;48.384;-4.386;2022-10-31T14:55:31;7.75;3.25;2.25
73546;PMS7003;61807;48.384;-4.386;2022-10-31T14:58:06;5.75;2.25;2.00
73546;PMS7003;61807;48.384;-4.386;2022-10-31T15:00:33;1.50;1.50;1.00
73546;PMS7003;61807;48.384;-4.386;2022-10-31T15:05:41;5.75;3.50;2.00
73546;PMS7003;61807;48.384;-4.386;2022-10-31T15:08:13;6.25;3.25;1.25
73546;PMS7003;61807;48.384;-4.386;2022-10-31T15:10:51;4.00;2.50;1.25
73546;PMS7003;61807;48.384;-4.386;2022-10-31T15:13:18;2.50;1.50;1.50
73546;PMS7003;61807;48.384;-4.386;2022-10-31T15:15:45;1.50;1.00;1.00
73546;PMS7003;61807;48.384;-4.386;2022-10-31T15:18:24;0.00;0.00;0.00
73546;PMS7003;61807;48.384;-4.386;2022-10-31T15:20:51;2.00;1.00;1.00
73546;PMS7003;61807;48.384;-4.386;2022-10-31T15:23:28;0.75;0.00;0.00
73546;PMS7003;61807;48.384;-4.386;2022-10-31T15:25:57;3.00;0.00;0.00
73546;PMS7003;61807;48.384;-4.386;2022-10-31T15:28:24;2.00;0.00;0.00
73546;PMS7003;61807;48.384;-4.386;2022-10-31T15:30:54;0.75;0.00;0.00
73546;PMS7003;61807;48.384;-4.386;2022-10-31T15:33:22;0.00;0.00;0.00
73546;PMS7003;61807;48.384;-4.386;2022-10-31T15:35:57;1.00;0.00;0.00
73546;PMS7003;61807;48.384;-4.386;2022-10-31T15:38:24;10.75;5.50;1.75
73546;PMS7003;61807;48.384;-4.386;2022-10-31T15:40:52;0.75;0.00;0.00
73546;PMS7003;61807;48.384;-4.386;2022-10-31T15:43:38;4.75;0.00;0.00
73546;PMS7003;61807;48.384;-4.386;2022-10-31T15:46:09;0.00;0.00;0.00
73546;PMS7003;61807;48.384;-4.386;2022-10-31T15:48:35;0.00;0.00;0.00
73546;PMS7003;61807;48.384;-4.386;2022-10-31T15:51:00;0.00;0.00;0.00
73546;PMS7003;61807;48.384;-4.386;2022-10-31T15:53:31;0.50;0.25;0.00
73546;PMS7003;61807;48.384;-4.386;2022-10-31T15:56:08;0.25;0.25;0.00
73546;PMS7003;61807;48.384;-4.386;2022-10-31T15:58:46;2.25;1.50;0.50
73546;PMS7003;61807;48.384;-4.386;2022-10-31T16:01:22;1.50;0.25;0.00
73546;PMS7003;61807;48.384;-4.386;2022-10-31T16:03:59;4.50;0.00;0.00
73546;PMS7003;61807;48.384;-4.386;2022-10-31T16:06:28;0.75;0.00;0.00
73546;PMS7003;61807;48.384;-4.386;2022-10-31T16:08:53;1.75;0.00;0.00
73546;PMS7003;61807;48.384;-4.386;2022-10-31T16:11:24;0.75;0.00;0.00
73546;PMS7003;61807;48.384;-4.386;2022-10-31T16:16:26;1.75;0.00;0.00
73546;PMS7003;61807;48.384;-4.386;2022-10-31T16:18:54;2.50;0.00;0.00
73546;PMS7003;61807;48.384;-4.386;2022-10-31T16:21:26;1.00;1.00;0.50
73546;PMS7003;61807;48.384;-4.386;2022-10-31T16:23:59;1.50;0.00;0.00
73546;PMS7003;61807;48.384;-4.386;2022-10-31T16:26:28;4.25;1.50;0.50
73546;PMS7003;61807;48.384;-4.386;2022-10-31T16:28:55;3.00;0.00;0.00
73546;PMS7003;61807;48.384;-4.386;2022-10-31T16:31:29;0.00;0.00;0.00
73546;PMS7003;61807;48.384;-4.386;2022-10-31T16:34:20;2.75;0.00;0.00
73546;PMS7003;61807;48.384;-4.386;2022-10-31T16:36:46;1.50;0.50;0.00
73546;PMS7003;61807;48.384;-4.386;2022-10-31T16:39:13;3.25;0.00;0.00
73546;PMS7003;61807;48.384;-4.386;2022-10-31T16:41:40;4.75;0.00;0.00
73546;PMS7003;61807;48.384;-4.386;2022-10-31T16:44:13;2.25;0.00;0.00
73546;PMS7003;61807;48.384;-4.386;2022-10-31T16:46:40;1.50;0.00;0.00
73546;PMS7003;61807;48.384;-4.386;2022-10-31T16:49:07;1.50;0.50;0.25
73546;PMS7003;61807;48.384;-4.386;2022-10-31T16:51:33;1.00;0.00;0.00